Honoraville, Alabama
Current Conditions -  °F | °C
As of 5:56 AM on Friday 21 Nov 2014 (Local Time) from KPRN Reporting Station
Clear Clear  
Wind Chill: 35°   Ceiling: Unl
Heat Index: 35°   Visibility: 8mi
Dew Point: 32°   Wind: 3mph
Humidity: 89%   Direction: 360°N
Pressure: 30.31"   Gusts: NA
Location:  31.85°N, 86.41°W
Report Text: KPRN 211156Z AUTO 36003KT 8SM CLR 02/00 A3031 RMK AO2 SLP265 T00170000 10050 20017 53015 FZRANO $
Loading
Personal Weather Stations






























Interactive Weather Map New forecast layout! Learn more

10-Day Weather Forecast

Advertisements
Track Severe Weather on mobile